Time;durP1;ratioP1;P1;durP2;ratioP2;P2;SDS_P1;SDS_P2;PMS_P1;PMS_P2;Temp;Humidity;BMP_temperature;BMP_pressure;BME280_temperature;BME280_humidity;BME280_pressure;Samples;Min_cycle;Max_cycle;Signal;HPM_P1;HPM_P2
2021/10/15 00:01:14;;;;;;;10.52;6.20;;;;;;;;;;4946116;28;22135;-58
2021/10/15 00:03:39;;;;;;;13.90;6.25;;;;;;;;;;4944798;28;20074;-58
2021/10/15 00:06:04;;;;;;;12.38;6.03;;;;;;;;;;4944089;28;20494;-58
2021/10/15 00:08:29;;;;;;;14.82;7.43;;;;;;;;;;4942330;28;20974;-58
2021/10/15 00:10:54;;;;;;;11.95;4.65;;;;;;;;;;4944316;28;20036;-58
2021/10/15 00:13:20;;;;;;;14.15;7.18;;;;;;;;;;4943374;29;20383;-58
2021/10/15 00:15:45;;;;;;;18.20;6.85;;;;;;;;;;4941677;28;20427;-58
2021/10/15 00:18:10;;;;;;;16.73;6.93;;;;;;;;;;4946278;28;20093;-58
2021/10/15 00:20:35;;;;;;;15.10;7.40;;;;;;;;;;4947182;28;20078;-58
2021/10/15 00:23:01;;;;;;;14.77;7.15;;;;;;;;;;4948421;28;20042;-58
2021/10/15 00:25:26;;;;;;;16.58;6.70;;;;;;;;;;4947350;28;20036;-58
2021/10/15 00:27:51;;;;;;;17.35;6.88;;;;;;;;;;4944758;28;20487;-58
2021/10/15 00:30:16;;;;;;;18.23;8.20;;;;;;;;;;4937370;28;20074;-58
2021/10/15 00:32:42;;;;;;;13.82;7.32;;;;;;;;;;4939812;28;20027;-58
2021/10/15 00:35:07;;;;;;;17.67;7.38;;;;;;;;;;4941197;28;20058;-57
2021/10/15 00:37:32;;;;;;;14.82;7.35;;;;;;;;;;4937882;28;20110;-58
2021/10/15 00:39:57;;;;;;;12.55;6.88;;;;;;;;;;4947636;28;20114;-58
2021/10/15 00:42:23;;;;;;;14.02;8.55;;;;;;;;;;4946043;28;20085;-58
2021/10/15 00:44:48;;;;;;;15.88;8.23;;;;;;;;;;4957480;28;20035;-58
2021/10/15 00:47:13;;;;;;;17.70;7.82;;;;;;;;;;4943108;28;20512;-58
2021/10/15 00:49:38;;;;;;;14.25;8.52;;;;;;;;;;4946426;28;20045;-58
2021/10/15 00:52:05;;;;;;;15.55;8.98;;;;;;;;;;4947893;28;20039;-58
2021/10/15 00:54:30;;;;;;;16.50;9.27;;;;;;;;;;4931843;28;20033;-58
2021/10/15 00:56:56;;;;;;;21.38;10.07;;;;;;;;;;4941149;28;20047;-58
2021/10/15 00:59:21;;;;;;;20.05;9.38;;;;;;;;;;4942213;29;20030;-58
2021/10/15 01:01:47;;;;;;;21.58;10.45;;;;;;;;;;4945416;28;20398;-58
2021/10/15 01:04:13;;;;;;;16.75;8.13;;;;;;;;;;4952719;28;20705;-58
2021/10/15 01:06:38;;;;;;;14.82;9.23;;;;;;;;;;4947402;28;20039;-58
2021/10/15 01:09:03;;;;;;;17.92;9.43;;;;;;;;;;4942167;28;20448;-58
2021/10/15 01:11:28;;;;;;;23.17;10.43;;;;;;;;;;4946919;28;20035;-58
2021/10/15 01:13:54;;;;;;;18.25;10.48;;;;;;;;;;4943003;28;20114;-58
2021/10/15 01:16:22;;;;;;;17.73;10.85;;;;;;;;;;4946130;28;20047;-58
2021/10/15 01:18:48;;;;;;;19.98;10.35;;;;;;;;;;4937383;29;20027;-58
2021/10/15 01:21:13;;;;;;;18.83;10.15;;;;;;;;;;4935431;28;20058;-58
2021/10/15 01:23:38;;;;;;;19.80;8.85;;;;;;;;;;4950993;28;20110;-58
2021/10/15 01:26:04;;;;;;;18.58;9.65;;;;;;;;;;4946035;28;20162;-58
2021/10/15 01:28:29;;;;;;;19.42;10.05;;;;;;;;;;4950529;28;20020;-58
2021/10/15 01:30:54;;;;;;;24.05;10.55;;;;;;;;;;4944541;28;20387;-58
2021/10/15 01:33:20;;;;;;;17.63;9.43;;;;;;;;;;4945348;28;20517;-58
2021/10/15 01:35:45;;;;;;;21.88;10.43;;;;;;;;;;4949476;28;20044;-58
2021/10/15 01:38:10;;;;;;;14.95;8.20;;;;;;;;;;4950197;28;20660;-58
2021/10/15 01:40:36;;;;;;;19.60;10.93;;;;;;;;;;4945182;28;20040;-58
2021/10/15 01:43:01;;;;;;;18.63;9.50;;;;;;;;;;4951194;28;20037;-58
2021/10/15 01:45:27;;;;;;;21.10;10.57;;;;;;;;;;4950563;28;20433;-58
2021/10/15 01:47:52;;;;;;;14.80;8.93;;;;;;;;;;4949122;28;20083;-58
2021/10/15 01:50:18;;;;;;;22.10;10.70;;;;;;;;;;4940215;28;20119;-58
2021/10/15 01:52:43;;;;;;;21.15;10.95;;;;;;;;;;4938775;28;20023;-58
2021/10/15 01:55:08;;;;;;;19.00;10.68;;;;;;;;;;4938795;28;20047;-58
2021/10/15 01:57:34;;;;;;;20.63;8.95;;;;;;;;;;4944700;29;20062;-58
2021/10/15 01:59:59;;;;;;;21.23;10.13;;;;;;;;;;4947344;28;20535;-58
2021/10/15 02:02:24;;;;;;;17.63;10.30;;;;;;;;;;4946681;28;20277;-58
2021/10/15 02:04:50;;;;;;;20.50;10.82;;;;;;;;;;4943819;28;20039;-58
2021/10/15 02:07:15;;;;;;;20.35;10.38;;;;;;;;;;4944580;28;20078;-58
2021/10/15 02:09:40;;;;;;;19.67;9.90;;;;;;;;;;4945786;28;20058;-58
2021/10/15 02:12:06;;;;;;;20.05;10.48;;;;;;;;;;4950243;28;20051;-58
2021/10/15 02:14:31;;;;;;;21.98;10.50;;;;;;;;;;4944742;28;20108;-58
2021/10/15 02:16:56;;;;;;;19.55;11.77;;;;;;;;;;4950211;28;20042;-58
2021/10/15 02:19:21;;;;;;;21.98;11.60;;;;;;;;;;4947735;28;20015;-58
2021/10/15 02:21:47;;;;;;;21.42;12.52;;;;;;;;;;4944584;28;20054;-58
2021/10/15 02:24:12;;;;;;;25.27;12.90;;;;;;;;;;4947323;28;20031;-58
2021/10/15 02:26:37;;;;;;;23.67;12.00;;;;;;;;;;4939866;28;20055;-58
2021/10/15 02:29:03;;;;;;;21.02;10.20;;;;;;;;;;4949423;28;20015;-58
2021/10/15 02:31:28;;;;;;;20.40;10.18;;;;;;;;;;4946353;28;20410;-58
2021/10/15 02:33:54;;;;;;;18.83;11.75;;;;;;;;;;4944473;28;20391;-58
2021/10/15 02:36:19;;;;;;;23.67;12.45;;;;;;;;;;4938329;28;20051;-58
2021/10/15 02:38:44;;;;;;;23.92;13.10;;;;;;;;;;4946507;28;20224;-58
2021/10/15 02:41:09;;;;;;;25.95;13.73;;;;;;;;;;4938719;28;20478;-58
2021/10/15 02:43:34;;;;;;;29.88;14.98;;;;;;;;;;4946201;28;20027;-58
2021/10/15 02:46:00;;;;;;;27.00;12.25;;;;;;;;;;4940935;28;20373;-58
2021/10/15 02:48:25;;;;;;;21.67;12.52;;;;;;;;;;4946185;29;20023;-58
2021/10/15 02:50:50;;;;;;;31.13;15.90;;;;;;;;;;4946391;28;20082;-58
2021/10/15 02:53:15;;;;;;;23.55;13.75;;;;;;;;;;4944807;29;20054;-58
2021/10/15 02:55:41;;;;;;;20.05;10.93;;;;;;;;;;4946717;28;20118;-58
2021/10/15 02:58:06;;;;;;;24.35;13.20;;;;;;;;;;4949804;28;20118;-58
2021/10/15 03:00:31;;;;;;;27.77;15.00;;;;;;;;;;4949554;28;20055;-57
2021/10/15 03:02:56;;;;;;;25.05;11.70;;;;;;;;;;4948988;28;20540;-58
2021/10/15 03:05:21;;;;;;;24.40;13.15;;;;;;;;;;4947097;28;20474;-58
2021/10/15 03:07:47;;;;;;;27.70;13.60;;;;;;;;;;4940612;28;20078;-58
2021/10/15 03:10:12;;;;;;;32.03;15.00;;;;;;;;;;4943756;28;20110;-58
2021/10/15 03:12:37;;;;;;;29.25;15.13;;;;;;;;;;4937794;28;20815;-58
2021/10/15 03:15:03;;;;;;;26.38;11.70;;;;;;;;;;4948881;28;20071;-58
2021/10/15 03:17:28;;;;;;;27.08;14.75;;;;;;;;;;4947516;29;20034;-58
2021/10/15 03:19:53;;;;;;;27.88;13.98;;;;;;;;;;4938150;29;20032;-58
2021/10/15 03:22:18;;;;;;;30.63;15.60;;;;;;;;;;4939452;28;20040;-58
2021/10/15 03:24:44;;;;;;;30.10;15.73;;;;;;;;;;4943211;29;20043;-58
2021/10/15 03:27:09;;;;;;;25.02;13.20;;;;;;;;;;4942820;28;20038;-58
2021/10/15 03:29:34;;;;;;;26.98;13.60;;;;;;;;;;4942739;28;20113;-58
2021/10/15 03:31:59;;;;;;;30.63;15.10;;;;;;;;;;4948795;28;20047;-58
2021/10/15 03:34:25;;;;;;;25.92;13.68;;;;;;;;;;4947369;28;20062;-58
2021/10/15 03:36:50;;;;;;;21.23;12.50;;;;;;;;;;4958707;28;20089;-58
2021/10/15 03:39:15;;;;;;;30.60;16.35;;;;;;;;;;4932175;29;20039;-58
2021/10/15 03:41:40;;;;;;;23.75;13.55;;;;;;;;;;4941496;28;20036;-58
2021/10/15 03:44:05;;;;;;;27.40;15.43;;;;;;;;;;4948818;28;20035;-58
2021/10/15 03:46:31;;;;;;;23.85;12.20;;;;;;;;;;4948657;28;20031;-58
2021/10/15 03:48:58;;;;;;;31.48;16.90;;;;;;;;;;4945582;28;20060;-58
2021/10/15 03:51:23;;;;;;;27.77;14.23;;;;;;;;;;4935978;28;20036;-57
2021/10/15 03:53:48;;;;;;;25.85;11.73;;;;;;;;;;4943027;28;20027;-57
2021/10/15 03:56:13;;;;;;;30.67;14.65;;;;;;;;;;4943763;28;20058;-58
2021/10/15 03:58:39;;;;;;;38.38;16.88;;;;;;;;;;4947560;28;20060;-58
2021/10/15 04:01:04;;;;;;;46.00;19.00;;;;;;;;;;4945895;28;20101;-58
2021/10/15 04:03:29;;;;;;;41.65;14.75;;;;;;;;;;4938136;28;20389;-57
2021/10/15 04:05:54;;;;;;;19.10;11.27;;;;;;;;;;4941917;28;20035;-57
2021/10/15 04:08:20;;;;;;;29.50;14.85;;;;;;;;;;4945020;28;20032;-58
2021/10/15 04:10:45;;;;;;;42.70;17.73;;;;;;;;;;4948237;28;20069;-57
2021/10/15 04:13:10;;;;;;;30.02;14.77;;;;;;;;;;4940802;28;20062;-57
2021/10/15 04:15:35;;;;;;;36.85;16.27;;;;;;;;;;4941910;28;20039;-57
2021/10/15 04:18:00;;;;;;;36.65;17.52;;;;;;;;;;4945158;29;20035;-58
2021/10/15 04:20:27;;;;;;;31.48;14.73;;;;;;;;;;4944906;28;20470;-57
2021/10/15 04:22:52;;;;;;;36.25;17.38;;;;;;;;;;4944310;28;20027;-58
2021/10/15 04:25:17;;;;;;;42.63;18.35;;;;;;;;;;4947814;28;20031;-58
2021/10/15 04:27:42;;;;;;;38.63;15.45;;;;;;;;;;4948133;28;20058;-58
2021/10/15 04:30:08;;;;;;;41.38;20.00;;;;;;;;;;4948090;28;20753;-58
2021/10/15 04:32:33;;;;;;;37.05;17.08;;;;;;;;;;4948595;28;20031;-57
2021/10/15 04:34:58;;;;;;;33.28;16.13;;;;;;;;;;4947399;28;20634;-58
2021/10/15 04:37:24;;;;;;;32.65;15.93;;;;;;;;;;4941328;28;20477;-58
2021/10/15 04:39:49;;;;;;;40.58;17.38;;;;;;;;;;4945967;28;20184;-58
2021/10/15 04:42:14;;;;;;;32.05;15.27;;;;;;;;;;4941166;28;20790;-58
2021/10/15 04:44:39;;;;;;;24.75;13.18;;;;;;;;;;4947649;28;20021;-58
2021/10/15 04:47:05;;;;;;;31.20;15.98;;;;;;;;;;4947043;28;20046;-56
2021/10/15 04:49:30;;;;;;;38.50;19.27;;;;;;;;;;4944854;28;20481;-57
2021/10/15 04:51:55;;;;;;;40.55;19.65;;;;;;;;;;4943941;28;20765;-58
2021/10/15 04:54:20;;;;;;;41.72;19.55;;;;;;;;;;4947758;28;20015;-58
2021/10/15 04:56:46;;;;;;;19.23;10.15;;;;;;;;;;4940557;28;20044;-58
2021/10/15 04:59:11;;;;;;;21.27;11.77;;;;;;;;;;4946065;28;20030;-58
2021/10/15 05:01:36;;;;;;;35.33;18.33;;;;;;;;;;4947004;28;20039;-58
2021/10/15 05:04:01;;;;;;;30.63;16.27;;;;;;;;;;4943945;28;20023;-58
2021/10/15 05:06:26;;;;;;;47.30;20.65;;;;;;;;;;4946891;28;20039;-58
2021/10/15 05:11:23;;;;;;;32.28;15.38;;;;;;;;;;4941228;28;20038;-58
2021/10/15 05:13:48;;;;;;;29.98;14.32;;;;;;;;;;4944455;28;20055;-58
2021/10/15 05:16:13;;;;;;;27.48;14.40;;;;;;;;;;4939709;28;20055;-58
2021/10/15 05:18:39;;;;;;;31.63;13.85;;;;;;;;;;4943517;28;20019;-58
2021/10/15 05:21:04;;;;;;;36.47;17.23;;;;;;;;;;4941804;29;20044;-58
2021/10/15 05:23:29;;;;;;;28.67;15.43;;;;;;;;;;4935105;28;20146;-58
2021/10/15 05:25:54;;;;;;;29.73;15.77;;;;;;;;;;4945007;28;20130;-58
2021/10/15 05:28:19;;;;;;;30.63;16.80;;;;;;;;;;4946904;28;20034;-58
2021/10/15 05:30:45;;;;;;;40.03;20.10;;;;;;;;;;4947116;28;20047;-58
2021/10/15 05:33:10;;;;;;;34.22;18.73;;;;;;;;;;4941599;28;20122;-58
2021/10/15 05:35:37;;;;;;;35.78;16.83;;;;;;;;;;4940156;28;20043;-58
2021/10/15 05:38:03;;;;;;;33.15;17.60;;;;;;;;;;4944818;28;20071;-58
2021/10/15 05:40:28;;;;;;;30.63;17.73;;;;;;;;;;4937548;28;20099;-58
2021/10/15 05:42:53;;;;;;;36.33;19.67;;;;;;;;;;4946180;28;20541;-58
2021/10/15 05:45:18;;;;;;;33.90;16.65;;;;;;;;;;4939818;28;20123;-58
2021/10/15 05:47:44;;;;;;;32.83;15.90;;;;;;;;;;4941158;28;20130;-58
2021/10/15 05:50:09;;;;;;;23.85;13.52;;;;;;;;;;4944741;28;20034;-58
2021/10/15 05:52:41;;;;;;;39.83;20.27;;;;;;;;;;4944971;28;20028;-58
2021/10/15 06:00:22;;;;;;;31.58;16.05;;;;;;;;;;4943664;28;20478;-57
2021/10/15 06:02:47;;;;;;;35.67;20.25;;;;;;;;;;4947868;28;20145;-57
2021/10/15 06:15:46;;;;;;;38.15;21.63;;;;;;;;;;4937346;28;20122;-58
2021/10/15 06:18:17;;;;;;;33.90;18.73;;;;;;;;;;4946273;29;20224;-58
2021/10/15 06:20:42;;;;;;;36.92;18.60;;;;;;;;;;4948111;28;20039;-58
2021/10/15 06:23:07;;;;;;;38.80;20.75;;;;;;;;;;4947934;28;20027;-58
2021/10/15 06:25:34;;;;;;;29.13;15.20;;;;;;;;;;4941285;28;20042;-58
2021/10/15 06:28:02;;;;;;;39.70;19.33;;;;;;;;;;4944733;28;20143;-58
2021/10/15 06:30:28;;;;;;;37.25;19.52;;;;;;;;;;4938808;28;20036;-59
2021/10/15 06:32:53;;;;;;;30.25;16.58;;;;;;;;;;4943989;28;20438;-58
2021/10/15 06:35:18;;;;;;;33.42;18.70;;;;;;;;;;4948833;28;20050;-58
2021/10/15 06:37:43;;;;;;;30.90;17.42;;;;;;;;;;4947807;28;20054;-58
2021/10/15 06:40:09;;;;;;;28.85;15.88;;;;;;;;;;4946283;28;20139;-57
2021/10/15 06:42:34;;;;;;;29.63;16.88;;;;;;;;;;4950335;28;20027;-58
2021/10/15 06:45:00;;;;;;;29.10;17.05;;;;;;;;;;4949325;28;20027;-57
2021/10/15 06:47:26;;;;;;;24.70;14.85;;;;;;;;;;4950703;28;20148;-58
2021/10/15 06:49:52;;;;;;;29.38;16.27;;;;;;;;;;4949836;28;20048;-57
2021/10/15 06:52:17;;;;;;;28.70;17.50;;;;;;;;;;4945355;28;20043;-58
2021/10/15 06:54:42;;;;;;;33.78;17.75;;;;;;;;;;4938583;28;20043;-58
2021/10/15 06:57:08;;;;;;;30.48;16.92;;;;;;;;;;4943075;28;20051;-57
2021/10/15 06:59:34;;;;;;;30.35;17.92;;;;;;;;;;4942206;28;20027;-58
2021/10/15 07:01:59;;;;;;;29.13;16.00;;;;;;;;;;4946030;28;20052;-57
2021/10/15 07:04:24;;;;;;;27.98;15.77;;;;;;;;;;4943478;28;20031;-57
2021/10/15 07:06:49;;;;;;;32.95;16.13;;;;;;;;;;4944976;28;20043;-57
2021/10/15 07:09:15;;;;;;;27.60;16.52;;;;;;;;;;4938037;28;20046;-58
2021/10/15 07:11:40;;;;;;;27.83;16.65;;;;;;;;;;4944577;28;20031;-58
2021/10/15 07:14:05;;;;;;;26.63;14.73;;;;;;;;;;4949930;28;20081;-57
2021/10/15 07:16:31;;;;;;;27.80;16.05;;;;;;;;;;4949730;28;20047;-57
2021/10/15 07:18:56;;;;;;;27.02;16.52;;;;;;;;;;4939363;28;20062;-58
2021/10/15 07:21:21;;;;;;;25.58;15.52;;;;;;;;;;4944089;28;20093;-58
2021/10/15 07:23:46;;;;;;;24.33;15.25;;;;;;;;;;4943763;28;20059;-58
2021/10/15 07:26:12;;;;;;;28.60;14.02;;;;;;;;;;4938219;28;20060;-58
2021/10/15 07:28:37;;;;;;;31.38;14.77;;;;;;;;;;4937437;29;20086;-58
2021/10/15 07:31:02;;;;;;;24.58;15.75;;;;;;;;;;4939330;28;20409;-58
2021/10/15 07:33:27;;;;;;;23.00;15.65;;;;;;;;;;4941453;28;20110;-58
2021/10/15 07:35:53;;;;;;;29.40;15.80;;;;;;;;;;4943195;28;20071;-57
2021/10/15 07:38:18;;;;;;;21.08;13.40;;;;;;;;;;4941205;28;20027;-58
2021/10/15 07:40:43;;;;;;;27.50;14.68;;;;;;;;;;4939840;29;20126;-59
2021/10/15 07:43:08;;;;;;;27.83;14.52;;;;;;;;;;4941904;28;20031;-59
2021/10/15 07:45:34;;;;;;;18.75;13.38;;;;;;;;;;4941357;28;20111;-59
2021/10/15 07:47:59;;;;;;;25.85;14.80;;;;;;;;;;4941478;28;20046;-57
2021/10/15 07:50:24;;;;;;;22.92;14.55;;;;;;;;;;4947395;28;20038;-57
2021/10/15 07:52:50;;;;;;;19.98;11.55;;;;;;;;;;4959376;28;20027;-60
2021/10/15 07:55:15;;;;;;;26.20;15.85;;;;;;;;;;4942385;28;20070;-58
2021/10/15 07:57:40;;;;;;;18.05;11.32;;;;;;;;;;4945898;28;20062;-58
2021/10/15 08:00:06;;;;;;;23.30;13.15;;;;;;;;;;4946736;28;20486;-58
2021/10/15 08:02:31;;;;;;;20.92;12.10;;;;;;;;;;4939624;29;20367;-59
2021/10/15 08:04:56;;;;;;;28.08;14.10;;;;;;;;;;4937932;28;20034;-59
2021/10/15 08:07:21;;;;;;;23.98;14.10;;;;;;;;;;4945624;28;20035;-58
2021/10/15 08:09:47;;;;;;;24.08;14.32;;;;;;;;;;4947426;28;20086;-58
2021/10/15 08:12:12;;;;;;;21.80;13.57;;;;;;;;;;4942289;28;20059;-57
2021/10/15 08:14:37;;;;;;;27.52;14.65;;;;;;;;;;4942355;29;20027;-60
2021/10/15 08:17:02;;;;;;;22.63;13.57;;;;;;;;;;4942358;28;20663;-58
2021/10/15 08:19:28;;;;;;;20.33;11.13;;;;;;;;;;4939445;28;20011;-60
2021/10/15 08:21:53;;;;;;;27.65;14.60;;;;;;;;;;4946793;28;20549;-59
2021/10/15 08:24:18;;;;;;;17.60;12.02;;;;;;;;;;4947641;28;20030;-59
2021/10/15 08:26:43;;;;;;;18.88;13.50;;;;;;;;;;4941495;28;20030;-58
2021/10/15 08:29:09;;;;;;;21.95;11.90;;;;;;;;;;4945643;28;20042;-58
2021/10/15 08:31:34;;;;;;;27.77;13.95;;;;;;;;;;4933657;28;20611;-59
2021/10/15 08:34:02;;;;;;;22.73;14.18;;;;;;;;;;4941485;28;20027;-58
2021/10/15 08:36:27;;;;;;;19.92;13.05;;;;;;;;;;4946792;28;20134;-59
2021/10/15 08:38:53;;;;;;;19.58;13.45;;;;;;;;;;4942146;28;20455;-58
2021/10/15 08:41:23;;;;;;;20.95;13.60;;;;;;;;;;4924724;29;20039;-58
2021/10/15 08:43:48;;;;;;;22.92;13.43;;;;;;;;;;4937733;28;20026;-57
2021/10/15 08:46:14;;;;;;;17.95;11.57;;;;;;;;;;4941364;28;20036;-60
2021/10/15 08:48:39;;;;;;;19.00;11.73;;;;;;;;;;4942727;28;20031;-59
2021/10/15 08:51:05;;;;;;;32.75;14.73;;;;;;;;;;4940715;28;20031;-57
2021/10/15 08:53:30;;;;;;;19.73;12.18;;;;;;;;;;4941000;29;20035;-57
2021/10/15 08:55:55;;;;;;;23.25;12.18;;;;;;;;;;4937279;28;20097;-57
2021/10/15 08:58:21;;;;;;;19.67;12.43;;;;;;;;;;4942117;28;20481;-58
2021/10/15 09:00:46;;;;;;;21.55;12.52;;;;;;;;;;4939931;28;20493;-58
2021/10/15 09:03:15;;;;;;;19.75;12.15;;;;;;;;;;4938020;28;20031;-58
2021/10/15 09:05:40;;;;;;;20.02;12.65;;;;;;;;;;4936590;28;20047;-59
2021/10/15 09:08:06;;;;;;;21.77;12.30;;;;;;;;;;4941767;28;20015;-59
2021/10/15 09:10:31;;;;;;;14.35;10.65;;;;;;;;;;4944961;28;20109;-58
2021/10/15 09:12:57;;;;;;;15.27;10.65;;;;;;;;;;4941536;28;20557;-58
2021/10/15 09:15:30;;;;;;;18.08;11.85;;;;;;;;;;4937264;28;20394;-58
2021/10/15 09:17:55;;;;;;;18.05;10.73;;;;;;;;;;4936509;28;20023;-59
2021/10/15 09:20:30;;;;;;;18.33;11.20;;;;;;;;;;4940779;28;20098;-59
2021/10/15 09:22:56;;;;;;;16.73;10.02;;;;;;;;;;4942204;28;20427;-58
2021/10/15 09:25:21;;;;;;;17.10;10.98;;;;;;;;;;4944545;28;20035;-58
2021/10/15 09:27:47;;;;;;;16.83;10.65;;;;;;;;;;4943877;28;20078;-58
2021/10/15 09:30:22;;;;;;;17.90;10.13;;;;;;;;;;4940941;28;20023;-58
2021/10/15 09:32:49;;;;;;;15.93;10.23;;;;;;;;;;4945504;28;20023;-58
2021/10/15 09:35:15;;;;;;;15.80;10.40;;;;;;;;;;4944568;28;20446;-58
2021/10/15 09:37:42;;;;;;;19.38;10.68;;;;;;;;;;4955845;28;20026;-58
2021/10/15 09:40:14;;;;;;;11.35;7.78;;;;;;;;;;4946481;28;20039;-58
2021/10/15 09:42:46;;;;;;;18.80;9.13;;;;;;;;;;4949060;28;20106;-58
2021/10/15 09:45:16;;;;;;;14.75;9.73;;;;;;;;;;4949256;28;20054;-58
2021/10/15 09:47:42;;;;;;;18.50;11.63;;;;;;;;;;4949245;28;20042;-58
2021/10/15 09:50:07;;;;;;;23.00;10.02;;;;;;;;;;4947386;28;20035;-58
2021/10/15 09:52:40;;;;;;;16.25;10.15;;;;;;;;;;4949332;28;20047;-60
2021/10/15 09:55:06;;;;;;;16.50;8.90;;;;;;;;;;4936536;28;20051;-59
2021/10/15 09:57:35;;;;;;;16.75;8.95;;;;;;;;;;4945874;28;20035;-57
2021/10/15 10:00:00;;;;;;;14.85;9.88;;;;;;;;;;4940048;28;20119;-57
2021/10/15 10:02:26;;;;;;;11.98;7.88;;;;;;;;;;4949260;28;20023;-59
2021/10/15 10:04:51;;;;;;;13.70;9.05;;;;;;;;;;4942446;29;20019;-59
2021/10/15 10:07:17;;;;;;;13.13;8.27;;;;;;;;;;4948475;28;20401;-59
2021/10/15 10:09:42;;;;;;;18.80;9.18;;;;;;;;;;4943677;28;20024;-57
2021/10/15 10:12:08;;;;;;;15.27;9.77;;;;;;;;;;4946961;28;20465;-60
2021/10/15 10:14:34;;;;;;;15.27;9.60;;;;;;;;;;4946877;28;20071;-58
2021/10/15 10:16:59;;;;;;;12.60;8.82;;;;;;;;;;4946894;28;20051;-58
2021/10/15 10:19:26;;;;;;;12.57;7.68;;;;;;;;;;4936149;28;20038;-58
2021/10/15 10:21:51;;;;;;;21.08;9.40;;;;;;;;;;4937155;29;20057;-58
2021/10/15 10:24:19;;;;;;;12.77;8.85;;;;;;;;;;4947279;28;20024;-58
2021/10/15 10:26:45;;;;;;;15.13;8.63;;;;;;;;;;4946906;28;20122;-58
2021/10/15 10:29:11;;;;;;;17.27;9.68;;;;;;;;;;4948920;28;20023;-58
2021/10/15 10:31:36;;;;;;;16.10;9.68;;;;;;;;;;4943724;28;20061;-58
2021/10/15 10:34:02;;;;;;;15.20;9.68;;;;;;;;;;4945588;29;20031;-58
2021/10/15 10:36:28;;;;;;;13.70;8.43;;;;;;;;;;4940490;28;20581;-58
2021/10/15 10:38:53;;;;;;;14.95;9.18;;;;;;;;;;4947899;28;20046;-58
2021/10/15 10:41:20;;;;;;;18.80;8.88;;;;;;;;;;4949733;28;20609;-58
2021/10/15 10:43:45;;;;;;;16.42;9.07;;;;;;;;;;4943208;29;20030;-58
2021/10/15 10:46:14;;;;;;;18.45;8.90;;;;;;;;;;4949947;28;20498;-58
2021/10/15 10:48:49;;;;;;;14.32;7.88;;;;;;;;;;4951119;28;20560;-58
2021/10/15 10:51:14;;;;;;;14.32;8.80;;;;;;;;;;4949061;28;20039;-58
2021/10/15 10:54:12;;;;;;;13.93;8.13;;;;;;;;;;4948884;28;20189;-58
2021/10/15 10:56:43;;;;;;;13.73;9.02;;;;;;;;;;4909396;28;20050;-58
2021/10/15 10:59:29;;;;;;;16.50;9.15;;;;;;;;;;4949479;28;20509;-58
2021/10/15 11:01:54;;;;;;;15.30;8.43;;;;;;;;;;4948600;28;20054;-58
2021/10/15 11:04:29;;;;;;;11.60;7.55;;;;;;;;;;4949403;28;20659;-58
2021/10/15 11:07:08;;;;;;;11.18;6.93;;;;;;;;;;4945348;28;20095;-58
2021/10/15 11:09:42;;;;;;;12.95;7.00;;;;;;;;;;4944650;28;20435;-58
2021/10/15 11:12:07;;;;;;;18.50;8.30;;;;;;;;;;4940587;28;20040;-59
2021/10/15 11:14:52;;;;;;;13.52;8.68;;;;;;;;;;4944954;28;20501;-59
2021/10/15 11:17:17;;;;;;;20.17;8.20;;;;;;;;;;4946948;28;20047;-59
2021/10/15 11:19:43;;;;;;;13.60;8.57;;;;;;;;;;4948462;28;20035;-58
2021/10/15 11:22:08;;;;;;;15.20;9.00;;;;;;;;;;4941294;28;20481;-59
2021/10/15 11:24:33;;;;;;;14.52;9.07;;;;;;;;;;4942304;28;20054;-59
2021/10/15 11:26:59;;;;;;;14.82;8.32;;;;;;;;;;4942542;28;20047;-59
2021/10/15 11:29:24;;;;;;;15.70;8.68;;;;;;;;;;4937651;28;20031;-58
2021/10/15 11:31:53;;;;;;;16.52;9.32;;;;;;;;;;4940175;28;20047;-58
2021/10/15 11:34:18;;;;;;;16.25;9.02;;;;;;;;;;4946064;28;20635;-59
2021/10/15 11:36:44;;;;;;;14.52;8.35;;;;;;;;;;4931278;28;20424;-59
2021/10/15 11:39:09;;;;;;;12.55;7.78;;;;;;;;;;4945551;29;20027;-58
2021/10/15 11:41:47;;;;;;;17.23;9.75;;;;;;;;;;4947125;28;20036;-60
2021/10/15 11:44:12;;;;;;;11.95;8.75;;;;;;;;;;4946331;28;20405;-58
2021/10/15 11:46:37;;;;;;;13.63;8.60;;;;;;;;;;4943554;28;20039;-58
2021/10/15 11:49:02;;;;;;;13.45;8.70;;;;;;;;;;4931930;28;20047;-58
2021/10/15 11:51:28;;;;;;;15.32;8.13;;;;;;;;;;4956880;28;20508;-58
2021/10/15 11:53:56;;;;;;;16.10;9.10;;;;;;;;;;4948199;28;20027;-59
2021/10/15 11:56:28;;;;;;;12.15;7.70;;;;;;;;;;4941992;28;20079;-58
2021/10/15 11:58:55;;;;;;;12.63;8.20;;;;;;;;;;4940430;28;20479;-58
2021/10/15 12:01:27;;;;;;;17.42;8.38;;;;;;;;;;4940472;28;20130;-58
2021/10/15 12:04:02;;;;;;;11.30;7.38;;;;;;;;;;4940417;28;20042;-58
2021/10/15 12:06:34;;;;;;;12.05;7.50;;;;;;;;;;4939541;28;20051;-58
2021/10/15 12:09:02;;;;;;;13.45;7.82;;;;;;;;;;4938933;28;20118;-58
2021/10/15 12:11:34;;;;;;;12.73;7.65;;;;;;;;;;4944377;28;20039;-58
2021/10/15 12:14:00;;;;;;;14.80;8.80;;;;;;;;;;4943175;28;20066;-58
2021/10/15 12:16:35;;;;;;;16.58;9.63;;;;;;;;;;4940938;28;20506;-58
2021/10/15 12:19:04;;;;;;;16.98;9.15;;;;;;;;;;4941869;28;20267;-58
2021/10/15 12:21:30;;;;;;;22.85;10.77;;;;;;;;;;4942880;28;20035;-59
2021/10/15 12:23:56;;;;;;;18.08;11.00;;;;;;;;;;4940792;29;20705;-57
2021/10/15 12:26:21;;;;;;;20.52;12.75;;;;;;;;;;4944382;28;20132;-58
2021/10/15 12:28:47;;;;;;;26.50;12.73;;;;;;;;;;4937073;28;20533;-58
2021/10/15 12:31:23;;;;;;;27.35;13.90;;;;;;;;;;4943487;28;20122;-58
2021/10/15 12:33:59;;;;;;;22.75;11.50;;;;;;;;;;4934855;28;20137;-58
2021/10/15 12:36:24;;;;;;;19.23;11.18;;;;;;;;;;4945605;28;20153;-58
2021/10/15 12:38:50;;;;;;;15.93;9.85;;;;;;;;;;4944842;28;20130;-58
2021/10/15 12:41:23;;;;;;;16.50;10.75;;;;;;;;;;4942694;28;20059;-59
2021/10/15 12:43:52;;;;;;;11.88;7.57;;;;;;;;;;4940622;28;20027;-58
2021/10/15 12:46:17;;;;;;;26.02;15.23;;;;;;;;;;4940780;28;20125;-59
2021/10/15 12:48:43;;;;;;;22.73;14.52;;;;;;;;;;4933669;28;20043;-59
2021/10/15 12:51:09;;;;;;;11.00;7.72;;;;;;;;;;4940123;28;20421;-59
2021/10/15 12:53:43;;;;;;;11.48;6.78;;;;;;;;;;4945553;28;20102;-59
2021/10/15 12:56:15;;;;;;;13.30;8.40;;;;;;;;;;4937391;28;20561;-59
2021/10/15 12:58:48;;;;;;;8.40;4.07;;;;;;;;;;4937331;28;20030;-59
2021/10/15 13:01:18;;;;;;;15.40;7.97;;;;;;;;;;4943871;28;20035;-59
2021/10/15 13:03:43;;;;;;;8.65;6.05;;;;;;;;;;4938332;28;20055;-59
2021/10/15 13:06:09;;;;;;;8.10;4.80;;;;;;;;;;4937624;28;20074;-59
2021/10/15 13:08:34;;;;;;;15.80;5.82;;;;;;;;;;4939378;28;20410;-59
2021/10/15 13:10:59;;;;;;;9.50;4.90;;;;;;;;;;4943500;28;20659;-59
2021/10/15 13:13:24;;;;;;;8.98;5.00;;;;;;;;;;4938661;28;20052;-59
2021/10/15 13:15:50;;;;;;;14.48;8.63;;;;;;;;;;4943039;28;20165;-59
2021/10/15 13:18:15;;;;;;;9.50;5.80;;;;;;;;;;4943610;29;20023;-59
2021/10/15 13:20:40;;;;;;;11.75;5.20;;;;;;;;;;4947325;28;20039;-59
2021/10/15 13:23:06;;;;;;;7.72;4.63;;;;;;;;;;4946266;28;20078;-59
2021/10/15 13:25:31;;;;;;;6.72;4.45;;;;;;;;;;4957902;28;20510;-59
2021/10/15 13:27:57;;;;;;;8.07;4.55;;;;;;;;;;4951651;28;20218;-61
2021/10/15 13:30:22;;;;;;;7.82;5.07;;;;;;;;;;4948238;28;20042;-60
2021/10/15 13:32:48;;;;;;;8.00;5.38;;;;;;;;;;4948183;28;20683;-59
2021/10/15 13:35:13;;;;;;;13.35;9.13;;;;;;;;;;4945253;28;20026;-59
2021/10/15 13:37:42;;;;;;;16.42;11.05;;;;;;;;;;4945927;28;20532;-59
2021/10/15 13:40:09;;;;;;;9.57;6.45;;;;;;;;;;4946604;28;20031;-59
2021/10/15 13:42:59;;;;;;;9.27;7.20;;;;;;;;;;4945570;28;20101;-59
2021/10/15 13:50:37;;;;;;;10.07;6.07;;;;;;;;;;4944956;28;20073;-59
2021/10/15 13:53:03;;;;;;;9.00;5.50;;;;;;;;;;4948046;28;20062;-59
2021/10/15 13:55:29;;;;;;;10.73;5.78;;;;;;;;;;4941604;28;20036;-58
2021/10/15 13:57:55;;;;;;;7.97;4.85;;;;;;;;;;4950931;28;20031;-58
2021/10/15 14:00:28;;;;;;;7.45;5.78;;;;;;;;;;4945211;28;20047;-59
2021/10/15 14:02:54;;;;;;;9.73;5.30;;;;;;;;;;4949205;28;20031;-58
2021/10/15 14:05:20;;;;;;;7.30;5.70;;;;;;;;;;4948940;28;20031;-58
2021/10/15 14:07:45;;;;;;;13.07;9.43;;;;;;;;;;4950905;28;20493;-58
2021/10/15 14:10:10;;;;;;;9.45;6.03;;;;;;;;;;4950256;28;20520;-58
2021/10/15 14:12:36;;;;;;;8.18;5.55;;;;;;;;;;4941607;28;20133;-58
2021/10/15 14:15:01;;;;;;;9.85;5.80;;;;;;;;;;4950514;28;20039;-58
2021/10/15 14:17:27;;;;;;;9.95;5.63;;;;;;;;;;4950022;28;20106;-58
2021/10/15 14:19:52;;;;;;;15.85;9.90;;;;;;;;;;4948078;28;20394;-58
2021/10/15 14:22:18;;;;;;;16.63;12.93;;;;;;;;;;4948683;28;20142;-59
2021/10/15 14:24:43;;;;;;;10.50;7.88;;;;;;;;;;4948483;28;20023;-59
2021/10/15 14:27:08;;;;;;;10.50;7.07;;;;;;;;;;4941920;28;20553;-59
2021/10/15 14:29:34;;;;;;;9.88;7.57;;;;;;;;;;4941360;29;20485;-59
2021/10/15 14:31:59;;;;;;;10.15;6.30;;;;;;;;;;4952300;28;20051;-59
2021/10/15 14:34:25;;;;;;;10.68;7.00;;;;;;;;;;4949198;28;20023;-61
2021/10/15 14:36:50;;;;;;;13.35;10.52;;;;;;;;;;4942342;28;20102;-58
2021/10/15 14:39:15;;;;;;;12.65;8.00;;;;;;;;;;4950457;28;20078;-58
2021/10/15 14:41:40;;;;;;;11.85;8.15;;;;;;;;;;4949186;28;20445;-59